sensor_id;sensor_type;location;lat;lon;timestamp;P1;durP1;ratioP1;P2;durP2;ratioP2
10863;SDS011;5485;37.558;126.950;2023-05-10T00:00:20;36.85;;;30.45;;
10863;SDS011;5485;37.558;126.950;2023-05-10T00:02:49;38.40;;;31.75;;
10863;SDS011;5485;37.558;126.950;2023-05-10T00:05:16;39.10;;;31.80;;
10863;SDS011;5485;37.558;126.950;2023-05-10T00:07:43;39.75;;;33.22;;
10863;SDS011;5485;37.558;126.950;2023-05-10T00:10:10;38.38;;;32.28;;
10863;SDS011;5485;37.558;126.950;2023-05-10T00:12:37;36.15;;;32.33;;
10863;SDS011;5485;37.558;126.950;2023-05-10T00:15:04;40.65;;;33.97;;
10863;SDS011;5485;37.558;126.950;2023-05-10T00:17:32;43.38;;;34.65;;
10863;SDS011;5485;37.558;126.950;2023-05-10T00:19:59;37.00;;;32.13;;
10863;SDS011;5485;37.558;126.950;2023-05-10T00:22:26;44.72;;;33.35;;
10863;SDS011;5485;37.558;126.950;2023-05-10T00:24:53;45.42;;;33.92;;
10863;SDS011;5485;37.558;126.950;2023-05-10T00:27:19;38.80;;;32.60;;
10863;SDS011;5485;37.558;126.950;2023-05-10T00:29:46;40.80;;;32.60;;
10863;SDS011;5485;37.558;126.950;2023-05-10T00:32:13;42.28;;;32.10;;
10863;SDS011;5485;37.558;126.950;2023-05-10T00:34:40;37.97;;;31.58;;
10863;SDS011;5485;37.558;126.950;2023-05-10T00:37:07;41.47;;;31.23;;
10863;SDS011;5485;37.558;126.950;2023-05-10T00:39:34;39.83;;;31.13;;
10863;SDS011;5485;37.558;126.950;2023-05-10T00:42:01;43.67;;;31.63;;
10863;SDS011;5485;37.558;126.950;2023-05-10T00:44:29;36.30;;;29.65;;
10863;SDS011;5485;37.558;126.950;2023-05-10T00:46:56;41.65;;;30.00;;
10863;SDS011;5485;37.558;126.950;2023-05-10T00:49:24;41.65;;;29.85;;
10863;SDS011;5485;37.558;126.950;2023-05-10T00:51:51;41.38;;;29.45;;
10863;SDS011;5485;37.558;126.950;2023-05-10T00:54:18;39.45;;;29.80;;
10863;SDS011;5485;37.558;126.950;2023-05-10T00:56:46;35.17;;;28.40;;
10863;SDS011;5485;37.558;126.950;2023-05-10T00:59:17;40.42;;;29.65;;
10863;SDS011;5485;37.558;126.950;2023-05-10T01:01:45;43.35;;;29.95;;
10863;SDS011;5485;37.558;126.950;2023-05-10T01:04:12;46.00;;;31.85;;
10863;SDS011;5485;37.558;126.950;2023-05-10T01:06:40;44.35;;;30.25;;
10863;SDS011;5485;37.558;126.950;2023-05-10T01:09:08;40.15;;;30.33;;
10863;SDS011;5485;37.558;126.950;2023-05-10T01:11:35;40.30;;;29.48;;
10863;SDS011;5485;37.558;126.950;2023-05-10T01:14:04;41.70;;;28.55;;
10863;SDS011;5485;37.558;126.950;2023-05-10T01:16:32;40.75;;;30.15;;
10863;SDS011;5485;37.558;126.950;2023-05-10T01:19:12;39.33;;;28.92;;
10863;SDS011;5485;37.558;126.950;2023-05-10T01:21:43;38.95;;;30.00;;
10863;SDS011;5485;37.558;126.950;2023-05-10T01:37:59;39.65;;;29.10;;
10863;SDS011;5485;37.558;126.950;2023-05-10T01:43:57;42.17;;;28.27;;
10863;SDS011;5485;37.558;126.950;2023-05-10T01:46:38;38.70;;;28.02;;
10863;SDS011;5485;37.558;126.950;2023-05-10T01:49:10;38.35;;;28.92;;
10863;SDS011;5485;37.558;126.950;2023-05-10T01:51:44;40.63;;;27.98;;
10863;SDS011;5485;37.558;126.950;2023-05-10T01:54:14;37.65;;;27.52;;
10863;SDS011;5485;37.558;126.950;2023-05-10T01:56:45;39.13;;;27.65;;
10863;SDS011;5485;37.558;126.950;2023-05-10T01:59:17;36.05;;;26.25;;
10863;SDS011;5485;37.558;126.950;2023-05-10T02:01:45;42.55;;;27.58;;
10863;SDS011;5485;37.558;126.950;2023-05-10T02:04:15;38.30;;;25.73;;
10863;SDS011;5485;37.558;126.950;2023-05-10T02:06:43;35.55;;;26.23;;
10863;SDS011;5485;37.558;126.950;2023-05-10T02:09:13;38.72;;;26.85;;
10863;SDS011;5485;37.558;126.950;2023-05-10T02:11:42;38.40;;;25.77;;
10863;SDS011;5485;37.558;126.950;2023-05-10T02:14:10;38.20;;;27.27;;
10863;SDS011;5485;37.558;126.950;2023-05-10T02:16:38;34.75;;;25.75;;
10863;SDS011;5485;37.558;126.950;2023-05-10T02:19:06;35.72;;;25.02;;
10863;SDS011;5485;37.558;126.950;2023-05-10T02:21:34;40.67;;;26.48;;
10863;SDS011;5485;37.558;126.950;2023-05-10T02:24:03;39.42;;;26.42;;
10863;SDS011;5485;37.558;126.950;2023-05-10T02:26:31;38.20;;;26.48;;
10863;SDS011;5485;37.558;126.950;2023-05-10T02:29:00;41.65;;;27.92;;
10863;SDS011;5485;37.558;126.950;2023-05-10T02:31:30;48.15;;;29.75;;
10863;SDS011;5485;37.558;126.950;2023-05-10T02:33:58;41.20;;;28.42;;
10863;SDS011;5485;37.558;126.950;2023-05-10T02:36:27;44.00;;;29.30;;
10863;SDS011;5485;37.558;126.950;2023-05-10T02:38:54;43.95;;;28.15;;
10863;SDS011;5485;37.558;126.950;2023-05-10T02:41:22;41.22;;;28.95;;
10863;SDS011;5485;37.558;126.950;2023-05-10T02:43:50;47.42;;;30.67;;
10863;SDS011;5485;37.558;126.950;2023-05-10T02:46:17;47.35;;;27.85;;
10863;SDS011;5485;37.558;126.950;2023-05-10T02:48:44;45.58;;;29.95;;
10863;SDS011;5485;37.558;126.950;2023-05-10T02:51:12;45.25;;;28.20;;
10863;SDS011;5485;37.558;126.950;2023-05-10T02:53:43;41.92;;;29.52;;
10863;SDS011;5485;37.558;126.950;2023-05-10T02:56:20;41.28;;;28.17;;
10863;SDS011;5485;37.558;126.950;2023-05-10T02:58:51;34.72;;;25.98;;
10863;SDS011;5485;37.558;126.950;2023-05-10T03:01:18;45.88;;;28.45;;
10863;SDS011;5485;37.558;126.950;2023-05-10T03:03:45;44.75;;;28.90;;
10863;SDS011;5485;37.558;126.950;2023-05-10T03:06:12;48.55;;;29.50;;
10863;SDS011;5485;37.558;126.950;2023-05-10T03:08:39;45.80;;;29.98;;
10863;SDS011;5485;37.558;126.950;2023-05-10T03:11:17;49.80;;;30.75;;
10863;SDS011;5485;37.558;126.950;2023-05-10T03:14:06;44.17;;;30.27;;
10863;SDS011;5485;37.558;126.950;2023-05-10T03:16:47;43.50;;;29.50;;
10863;SDS011;5485;37.558;126.950;2023-05-10T03:19:45;48.65;;;30.23;;
10863;SDS011;5485;37.558;126.950;2023-05-10T03:22:30;45.20;;;30.30;;
10863;SDS011;5485;37.558;126.950;2023-05-10T03:25:00;46.42;;;30.98;;
10863;SDS011;5485;37.558;126.950;2023-05-10T03:27:31;48.97;;;30.65;;
10863;SDS011;5485;37.558;126.950;2023-05-10T03:29:59;52.58;;;31.00;;
10863;SDS011;5485;37.558;126.950;2023-05-10T03:32:29;43.42;;;31.02;;
10863;SDS011;5485;37.558;126.950;2023-05-10T03:34:57;49.47;;;31.30;;
10863;SDS011;5485;37.558;126.950;2023-05-10T03:37:24;51.53;;;30.05;;
10863;SDS011;5485;37.558;126.950;2023-05-10T03:39:51;52.08;;;29.92;;
10863;SDS011;5485;37.558;126.950;2023-05-10T03:42:18;52.22;;;30.58;;
10863;SDS011;5485;37.558;126.950;2023-05-10T03:44:46;46.63;;;29.60;;
10863;SDS011;5485;37.558;126.950;2023-05-10T03:47:14;42.58;;;29.35;;
10863;SDS011;5485;37.558;126.950;2023-05-10T03:49:41;44.17;;;29.15;;
10863;SDS011;5485;37.558;126.950;2023-05-10T03:52:08;42.72;;;27.15;;
10863;SDS011;5485;37.558;126.950;2023-05-10T03:54:35;44.55;;;28.42;;
10863;SDS011;5485;37.558;126.950;2023-05-10T03:57:02;40.30;;;27.50;;
10863;SDS011;5485;37.558;126.950;2023-05-10T03:59:29;42.17;;;25.25;;
10863;SDS011;5485;37.558;126.950;2023-05-10T04:01:57;38.63;;;25.35;;
10863;SDS011;5485;37.558;126.950;2023-05-10T04:04:24;39.13;;;25.60;;
10863;SDS011;5485;37.558;126.950;2023-05-10T04:06:51;36.83;;;24.30;;
10863;SDS011;5485;37.558;126.950;2023-05-10T04:09:18;41.90;;;25.65;;
10863;SDS011;5485;37.558;126.950;2023-05-10T04:11:45;35.38;;;25.58;;
10863;SDS011;5485;37.558;126.950;2023-05-10T04:14:12;35.00;;;23.33;;
10863;SDS011;5485;37.558;126.950;2023-05-10T04:16:39;34.00;;;22.83;;
10863;SDS011;5485;37.558;126.950;2023-05-10T04:19:06;34.10;;;22.50;;
10863;SDS011;5485;37.558;126.950;2023-05-10T04:21:32;33.97;;;24.67;;
10863;SDS011;5485;37.558;126.950;2023-05-10T04:23:59;36.55;;;25.75;;
10863;SDS011;5485;37.558;126.950;2023-05-10T04:26:28;31.65;;;24.58;;
10863;SDS011;5485;37.558;126.950;2023-05-10T04:28:55;35.25;;;23.70;;
10863;SDS011;5485;37.558;126.950;2023-05-10T04:31:22;31.45;;;20.65;;
10863;SDS011;5485;37.558;126.950;2023-05-10T04:33:49;33.30;;;20.85;;
10863;SDS011;5485;37.558;126.950;2023-05-10T04:36:15;27.73;;;20.13;;
10863;SDS011;5485;37.558;126.950;2023-05-10T04:38:42;30.20;;;21.75;;
10863;SDS011;5485;37.558;126.950;2023-05-10T04:41:10;27.90;;;17.35;;
10863;SDS011;5485;37.558;126.950;2023-05-10T04:43:37;23.48;;;17.63;;
10863;SDS011;5485;37.558;126.950;2023-05-10T04:46:04;22.42;;;15.60;;
10863;SDS011;5485;37.558;126.950;2023-05-10T04:48:32;21.17;;;14.98;;
10863;SDS011;5485;37.558;126.950;2023-05-10T04:50:59;19.15;;;16.02;;
10863;SDS011;5485;37.558;126.950;2023-05-10T04:53:26;23.20;;;17.27;;
10863;SDS011;5485;37.558;126.950;2023-05-10T04:55:53;24.67;;;18.02;;
10863;SDS011;5485;37.558;126.950;2023-05-10T04:58:20;24.27;;;16.33;;
10863;SDS011;5485;37.558;126.950;2023-05-10T05:00:47;22.35;;;15.95;;
10863;SDS011;5485;37.558;126.950;2023-05-10T05:03:14;26.70;;;15.98;;
10863;SDS011;5485;37.558;126.950;2023-05-10T05:05:41;22.17;;;15.70;;
10863;SDS011;5485;37.558;126.950;2023-05-10T05:08:08;23.70;;;15.52;;
10863;SDS011;5485;37.558;126.950;2023-05-10T05:10:34;21.13;;;14.27;;
10863;SDS011;5485;37.558;126.950;2023-05-10T05:13:01;24.83;;;17.27;;
10863;SDS011;5485;37.558;126.950;2023-05-10T05:15:28;25.38;;;16.17;;
10863;SDS011;5485;37.558;126.950;2023-05-10T05:17:56;24.52;;;16.17;;
10863;SDS011;5485;37.558;126.950;2023-05-10T05:20:23;25.48;;;15.07;;
10863;SDS011;5485;37.558;126.950;2023-05-10T05:22:50;21.05;;;14.00;;
10863;SDS011;5485;37.558;126.950;2023-05-10T05:25:16;23.20;;;12.75;;
10863;SDS011;5485;37.558;126.950;2023-05-10T05:27:43;19.55;;;13.73;;
10863;SDS011;5485;37.558;126.950;2023-05-10T05:30:10;20.15;;;13.73;;
10863;SDS011;5485;37.558;126.950;2023-05-10T05:32:37;23.77;;;15.77;;
10863;SDS011;5485;37.558;126.950;2023-05-10T05:35:05;20.25;;;12.52;;
10863;SDS011;5485;37.558;126.950;2023-05-10T05:37:32;22.08;;;14.48;;
10863;SDS011;5485;37.558;126.950;2023-05-10T05:39:59;19.75;;;14.48;;
10863;SDS011;5485;37.558;126.950;2023-05-10T05:42:27;17.90;;;14.65;;
10863;SDS011;5485;37.558;126.950;2023-05-10T05:44:54;18.20;;;13.40;;
10863;SDS011;5485;37.558;126.950;2023-05-10T05:47:21;18.80;;;14.73;;
10863;SDS011;5485;37.558;126.950;2023-05-10T05:49:47;23.38;;;15.57;;
10863;SDS011;5485;37.558;126.950;2023-05-10T05:52:14;29.40;;;15.75;;
10863;SDS011;5485;37.558;126.950;2023-05-10T05:54:42;20.52;;;14.85;;
10863;SDS011;5485;37.558;126.950;2023-05-10T05:57:09;22.52;;;15.23;;
10863;SDS011;5485;37.558;126.950;2023-05-10T05:59:36;20.65;;;15.23;;
10863;SDS011;5485;37.558;126.950;2023-05-10T06:02:08;18.30;;;14.52;;
10863;SDS011;5485;37.558;126.950;2023-05-10T06:04:35;20.58;;;15.07;;
10863;SDS011;5485;37.558;126.950;2023-05-10T06:07:02;19.40;;;15.00;;
10863;SDS011;5485;37.558;126.950;2023-05-10T06:09:29;20.42;;;15.15;;
10863;SDS011;5485;37.558;126.950;2023-05-10T06:11:56;20.02;;;15.43;;
10863;SDS011;5485;37.558;126.950;2023-05-10T06:14:23;26.58;;;16.10;;
10863;SDS011;5485;37.558;126.950;2023-05-10T06:16:50;19.85;;;14.27;;
10863;SDS011;5485;37.558;126.950;2023-05-10T06:19:17;23.08;;;16.02;;
10863;SDS011;5485;37.558;126.950;2023-05-10T06:21:44;18.95;;;14.88;;
10863;SDS011;5485;37.558;126.950;2023-05-10T06:24:11;22.02;;;16.02;;
10863;SDS011;5485;37.558;126.950;2023-05-10T06:26:38;21.13;;;16.70;;
10863;SDS011;5485;37.558;126.950;2023-05-10T06:29:05;19.00;;;16.00;;
10863;SDS011;5485;37.558;126.950;2023-05-10T06:31:32;23.17;;;16.67;;
10863;SDS011;5485;37.558;126.950;2023-05-10T06:33:59;22.77;;;15.23;;
10863;SDS011;5485;37.558;126.950;2023-05-10T06:36:26;17.52;;;13.70;;
10863;SDS011;5485;37.558;126.950;2023-05-10T06:38:53;18.10;;;14.10;;
10863;SDS011;5485;37.558;126.950;2023-05-10T06:41:21;18.27;;;13.70;;
10863;SDS011;5485;37.558;126.950;2023-05-10T06:43:48;15.93;;;13.60;;
10863;SDS011;5485;37.558;126.950;2023-05-10T06:46:15;17.92;;;13.80;;
10863;SDS011;5485;37.558;126.950;2023-05-10T06:48:42;16.73;;;12.63;;
10863;SDS011;5485;37.558;126.950;2023-05-10T06:51:09;15.85;;;13.15;;
10863;SDS011;5485;37.558;126.950;2023-05-10T06:53:36;16.85;;;13.27;;
10863;SDS011;5485;37.558;126.950;2023-05-10T06:56:03;16.70;;;12.90;;
10863;SDS011;5485;37.558;126.950;2023-05-10T06:58:30;17.52;;;12.27;;
10863;SDS011;5485;37.558;126.950;2023-05-10T07:01:06;17.17;;;12.55;;
10863;SDS011;5485;37.558;126.950;2023-05-10T07:03:33;14.23;;;12.68;;
10863;SDS011;5485;37.558;126.950;2023-05-10T07:06:04;17.65;;;13.52;;
10863;SDS011;5485;37.558;126.950;2023-05-10T07:08:35;14.00;;;12.65;;
10863;SDS011;5485;37.558;126.950;2023-05-10T07:11:02;16.38;;;12.68;;
10863;SDS011;5485;37.558;126.950;2023-05-10T07:13:31;19.23;;;12.55;;
10863;SDS011;5485;37.558;126.950;2023-05-10T07:15:58;21.13;;;13.75;;
10863;SDS011;5485;37.558;126.950;2023-05-10T07:18:26;16.98;;;13.70;;
10863;SDS011;5485;37.558;126.950;2023-05-10T07:20:54;20.75;;;13.88;;
10863;SDS011;5485;37.558;126.950;2023-05-10T07:23:22;18.80;;;13.75;;
10863;SDS011;5485;37.558;126.950;2023-05-10T07:25:49;21.83;;;13.90;;
10863;SDS011;5485;37.558;126.950;2023-05-10T07:28:17;17.83;;;13.38;;
10863;SDS011;5485;37.558;126.950;2023-05-10T07:30:44;22.90;;;13.00;;
10863;SDS011;5485;37.558;126.950;2023-05-10T07:33:12;20.48;;;13.68;;
10863;SDS011;5485;37.558;126.950;2023-05-10T07:35:40;22.00;;;18.52;;
10863;SDS011;5485;37.558;126.950;2023-05-10T07:38:07;24.25;;;19.98;;
10863;SDS011;5485;37.558;126.950;2023-05-10T07:40:36;26.70;;;21.70;;
10863;SDS011;5485;37.558;126.950;2023-05-10T07:43:03;30.13;;;22.13;;
10863;SDS011;5485;37.558;126.950;2023-05-10T07:45:30;24.30;;;20.58;;
10863;SDS011;5485;37.558;126.950;2023-05-10T07:47:57;20.05;;;17.50;;
10863;SDS011;5485;37.558;126.950;2023-05-10T07:50:24;20.10;;;16.58;;
10863;SDS011;5485;37.558;126.950;2023-05-10T07:52:52;24.15;;;18.85;;
10863;SDS011;5485;37.558;126.950;2023-05-10T07:55:19;30.80;;;25.85;;
10863;SDS011;5485;37.558;126.950;2023-05-10T07:57:49;26.88;;;23.98;;
10863;SDS011;5485;37.558;126.950;2023-05-10T08:00:20;32.97;;;27.17;;
10863;SDS011;5485;37.558;126.950;2023-05-10T08:02:47;34.45;;;29.75;;
10863;SDS011;5485;37.558;126.950;2023-05-10T08:05:14;35.42;;;29.73;;
10863;SDS011;5485;37.558;126.950;2023-05-10T08:07:41;37.95;;;31.40;;
10863;SDS011;5485;37.558;126.950;2023-05-10T08:10:08;39.42;;;31.17;;
10863;SDS011;5485;37.558;126.950;2023-05-10T08:12:38;39.03;;;32.13;;
10863;SDS011;5485;37.558;126.950;2023-05-10T08:15:06;42.00;;;29.52;;
10863;SDS011;5485;37.558;126.950;2023-05-10T08:17:33;35.78;;;28.77;;
10863;SDS011;5485;37.558;126.950;2023-05-10T08:20:00;37.88;;;29.75;;
10863;SDS011;5485;37.558;126.950;2023-05-10T08:22:27;33.70;;;28.75;;
10863;SDS011;5485;37.558;126.950;2023-05-10T08:24:54;37.65;;;31.05;;
10863;SDS011;5485;37.558;126.950;2023-05-10T08:27:21;37.72;;;31.35;;
10863;SDS011;5485;37.558;126.950;2023-05-10T08:29:48;38.65;;;30.17;;
10863;SDS011;5485;37.558;126.950;2023-05-10T08:32:15;40.03;;;29.05;;
10863;SDS011;5485;37.558;126.950;2023-05-10T08:34:42;36.95;;;30.35;;
10863;SDS011;5485;37.558;126.950;2023-05-10T08:37:09;37.22;;;29.13;;
10863;SDS011;5485;37.558;126.950;2023-05-10T08:39:38;38.47;;;30.35;;
10863;SDS011;5485;37.558;126.950;2023-05-10T08:42:05;38.67;;;30.50;;
10863;SDS011;5485;37.558;126.950;2023-05-10T08:44:34;43.47;;;30.42;;
10863;SDS011;5485;37.558;126.950;2023-05-10T08:47:02;36.35;;;29.63;;
10863;SDS011;5485;37.558;126.950;2023-05-10T08:49:34;44.83;;;28.92;;
10863;SDS011;5485;37.558;126.950;2023-05-10T08:52:03;31.23;;;26.45;;
10863;SDS011;5485;37.558;126.950;2023-05-10T08:54:32;31.40;;;25.95;;
10863;SDS011;5485;37.558;126.950;2023-05-10T08:57:03;32.22;;;25.10;;
10863;SDS011;5485;37.558;126.950;2023-05-10T08:59:29;31.98;;;25.77;;
10863;SDS011;5485;37.558;126.950;2023-05-10T09:01:57;29.95;;;24.33;;
10863;SDS011;5485;37.558;126.950;2023-05-10T09:04:25;28.55;;;23.83;;
10863;SDS011;5485;37.558;126.950;2023-05-10T09:06:52;29.90;;;23.85;;
10863;SDS011;5485;37.558;126.950;2023-05-10T09:09:19;29.08;;;23.27;;
10863;SDS011;5485;37.558;126.950;2023-05-10T09:11:47;30.63;;;23.83;;
10863;SDS011;5485;37.558;126.950;2023-05-10T09:14:14;34.20;;;24.55;;
10863;SDS011;5485;37.558;126.950;2023-05-10T09:16:42;34.53;;;24.13;;
10863;SDS011;5485;37.558;126.950;2023-05-10T09:19:09;25.45;;;21.63;;
10863;SDS011;5485;37.558;126.950;2023-05-10T09:21:37;27.30;;;21.67;;
10863;SDS011;5485;37.558;126.950;2023-05-10T09:24:05;29.35;;;20.48;;
10863;SDS011;5485;37.558;126.950;2023-05-10T09:26:33;25.05;;;20.52;;
10863;SDS011;5485;37.558;126.950;2023-05-10T09:29:01;29.45;;;18.50;;
10863;SDS011;5485;37.558;126.950;2023-05-10T09:31:47;19.55;;;17.52;;
10863;SDS011;5485;37.558;126.950;2023-05-10T09:34:21;24.23;;;18.65;;
10863;SDS011;5485;37.558;126.950;2023-05-10T09:36:57;23.13;;;16.90;;
10863;SDS011;5485;37.558;126.950;2023-05-10T09:39:34;21.90;;;15.60;;
10863;SDS011;5485;37.558;126.950;2023-05-10T09:42:04;25.77;;;15.75;;
10863;SDS011;5485;37.558;126.950;2023-05-10T09:44:33;19.13;;;14.77;;
10863;SDS011;5485;37.558;126.950;2023-05-10T09:47:03;21.17;;;13.70;;
10863;SDS011;5485;37.558;126.950;2023-05-10T09:49:30;18.23;;;13.85;;
10863;SDS011;5485;37.558;126.950;2023-05-10T09:54:32;20.15;;;13.05;;
10863;SDS011;5485;37.558;126.950;2023-05-10T09:57:00;17.95;;;13.50;;
10863;SDS011;5485;37.558;126.950;2023-05-10T09:59:28;16.27;;;12.43;;
10863;SDS011;5485;37.558;126.950;2023-05-10T10:01:56;15.07;;;12.52;;
10863;SDS011;5485;37.558;126.950;2023-05-10T10:04:23;14.73;;;12.65;;
10863;SDS011;5485;37.558;126.950;2023-05-10T10:07:04;12.48;;;11.20;;
10863;SDS011;5485;37.558;126.950;2023-05-10T10:09:31;18.75;;;11.88;;
10863;SDS011;5485;37.558;126.950;2023-05-10T10:11:59;21.55;;;13.18;;
10863;SDS011;5485;37.558;126.950;2023-05-10T10:14:27;16.73;;;11.38;;
10863;SDS011;5485;37.558;126.950;2023-05-10T10:16:55;14.88;;;10.30;;
10863;SDS011;5485;37.558;126.950;2023-05-10T10:19:22;16.98;;;10.82;;
10863;SDS011;5485;37.558;126.950;2023-05-10T10:21:49;15.95;;;11.50;;
10863;SDS011;5485;37.558;126.950;2023-05-10T10:24:16;13.82;;;9.95;;
10863;SDS011;5485;37.558;126.950;2023-05-10T10:26:43;15.45;;;10.15;;
10863;SDS011;5485;37.558;126.950;2023-05-10T10:29:47;13.43;;;10.25;;
10863;SDS011;5485;37.558;126.950;2023-05-10T10:32:42;16.55;;;10.45;;
10863;SDS011;5485;37.558;126.950;2023-05-10T10:35:20;15.75;;;10.05;;
10863;SDS011;5485;37.558;126.950;2023-05-10T10:37:50;13.50;;;9.45;;
10863;SDS011;5485;37.558;126.950;2023-05-10T10:40:30;17.65;;;10.48;;
10863;SDS011;5485;37.558;126.950;2023-05-10T10:43:07;15.18;;;9.65;;
10863;SDS011;5485;37.558;126.950;2023-05-10T10:46:12;16.92;;;9.63;;
10863;SDS011;5485;37.558;126.950;2023-05-10T10:49:07;16.80;;;10.25;;
10863;SDS011;5485;37.558;126.950;2023-05-10T10:51:39;11.77;;;8.80;;
10863;SDS011;5485;37.558;126.950;2023-05-10T10:54:09;16.65;;;10.02;;
10863;SDS011;5485;37.558;126.950;2023-05-10T10:56:37;16.85;;;9.38;;
10863;SDS011;5485;37.558;126.950;2023-05-10T10:59:04;22.85;;;19.00;;
10863;SDS011;5485;37.558;126.950;2023-05-10T11:01:34;18.17;;;10.55;;
10863;SDS011;5485;37.558;126.950;2023-05-10T11:06:31;20.52;;;10.48;;
10863;SDS011;5485;37.558;126.950;2023-05-10T11:09:09;16.63;;;11.77;;
10863;SDS011;5485;37.558;126.950;2023-05-10T11:11:53;15.60;;;10.32;;
10863;SDS011;5485;37.558;126.950;2023-05-10T11:14:21;13.40;;;10.15;;
10863;SDS011;5485;37.558;126.950;2023-05-10T11:16:48;16.42;;;12.15;;
10863;SDS011;5485;37.558;126.950;2023-05-10T11:19:16;17.55;;;11.18;;
10863;SDS011;5485;37.558;126.950;2023-05-10T11:21:50;14.98;;;10.40;;
10863;SDS011;5485;37.558;126.950;2023-05-10T11:24:38;17.13;;;12.07;;
10863;SDS011;5485;37.558;126.950;2023-05-10T11:27:05;17.65;;;10.88;;
10863;SDS011;5485;37.558;126.950;2023-05-10T11:29:32;11.38;;;9.32;;
10863;SDS011;5485;37.558;126.950;2023-05-10T11:31:59;15.77;;;10.95;;
10863;SDS011;5485;37.558;126.950;2023-05-10T11:34:27;25.55;;;11.77;;
10863;SDS011;5485;37.558;126.950;2023-05-10T11:36:56;13.43;;;10.77;;
10863;SDS011;5485;37.558;126.950;2023-05-10T11:39:27;19.50;;;11.10;;
10863;SDS011;5485;37.558;126.950;2023-05-10T11:41:54;18.58;;;11.55;;
10863;SDS011;5485;37.558;126.950;2023-05-10T11:44:22;15.55;;;10.60;;
10863;SDS011;5485;37.558;126.950;2023-05-10T11:46:50;15.43;;;11.02;;
10863;SDS011;5485;37.558;126.950;2023-05-10T11:49:17;16.65;;;10.75;;
10863;SDS011;5485;37.558;126.950;2023-05-10T11:51:44;16.95;;;11.00;;
10863;SDS011;5485;37.558;126.950;2023-05-10T11:54:12;15.02;;;10.65;;
10863;SDS011;5485;37.558;126.950;2023-05-10T11:56:39;15.48;;;9.73;;
10863;SDS011;5485;37.558;126.950;2023-05-10T11:59:07;19.13;;;11.45;;
10863;SDS011;5485;37.558;126.950;2023-05-10T12:01:34;19.33;;;11.02;;
10863;SDS011;5485;37.558;126.950;2023-05-10T12:04:01;14.90;;;9.57;;
10863;SDS011;5485;37.558;126.950;2023-05-10T12:06:32;22.60;;;10.45;;
10863;SDS011;5485;37.558;126.950;2023-05-10T12:09:06;16.02;;;10.88;;
10863;SDS011;5485;37.558;126.950;2023-05-10T12:11:37;15.35;;;10.40;;
10863;SDS011;5485;37.558;126.950;2023-05-10T12:14:05;16.00;;;10.30;;
10863;SDS011;5485;37.558;126.950;2023-05-10T12:16:34;16.42;;;10.13;;
10863;SDS011;5485;37.558;126.950;2023-05-10T12:19:02;17.77;;;10.27;;
10863;SDS011;5485;37.558;126.950;2023-05-10T12:21:29;17.70;;;10.25;;
10863;SDS011;5485;37.558;126.950;2023-05-10T12:24:00;14.23;;;10.48;;
10863;SDS011;5485;37.558;126.950;2023-05-10T12:26:29;22.85;;;10.38;;
10863;SDS011;5485;37.558;126.950;2023-05-10T12:29:11;12.68;;;10.48;;
10863;SDS011;5485;37.558;126.950;2023-05-10T12:31:51;13.82;;;9.50;;
10863;SDS011;5485;37.558;126.950;2023-05-10T12:34:26;17.50;;;10.70;;
10863;SDS011;5485;37.558;126.950;2023-05-10T12:36:53;18.50;;;11.02;;
10863;SDS011;5485;37.558;126.950;2023-05-10T12:39:21;15.57;;;10.43;;
10863;SDS011;5485;37.558;126.950;2023-05-10T12:41:48;16.05;;;10.60;;
10863;SDS011;5485;37.558;126.950;2023-05-10T12:44:17;24.17;;;11.40;;
10863;SDS011;5485;37.558;126.950;2023-05-10T12:46:47;16.23;;;10.32;;
10863;SDS011;5485;37.558;126.950;2023-05-10T12:49:14;14.05;;;10.38;;
10863;SDS011;5485;37.558;126.950;2023-05-10T12:51:44;14.48;;;10.05;;
10863;SDS011;5485;37.558;126.950;2023-05-10T12:54:11;14.40;;;10.45;;
10863;SDS011;5485;37.558;126.950;2023-05-10T12:56:38;16.88;;;11.23;;
10863;SDS011;5485;37.558;126.950;2023-05-10T12:59:10;17.83;;;11.02;;
10863;SDS011;5485;37.558;126.950;2023-05-10T13:01:37;18.13;;;11.18;;
10863;SDS011;5485;37.558;126.950;2023-05-10T13:04:04;15.32;;;11.35;;
10863;SDS011;5485;37.558;126.950;2023-05-10T13:06:31;18.35;;;11.25;;
10863;SDS011;5485;37.558;126.950;2023-05-10T13:08:58;20.48;;;11.32;;
10863;SDS011;5485;37.558;126.950;2023-05-10T13:11:25;19.00;;;11.23;;
10863;SDS011;5485;37.558;126.950;2023-05-10T13:13:52;21.02;;;11.45;;
10863;SDS011;5485;37.558;126.950;2023-05-10T13:16:19;15.80;;;12.13;;
10863;SDS011;5485;37.558;126.950;2023-05-10T13:18:46;20.95;;;10.60;;
10863;SDS011;5485;37.558;126.950;2023-05-10T13:21:13;15.23;;;10.85;;
10863;SDS011;5485;37.558;126.950;2023-05-10T13:23:40;17.40;;;10.93;;
10863;SDS011;5485;37.558;126.950;2023-05-10T13:26:07;14.63;;;10.68;;
10863;SDS011;5485;37.558;126.950;2023-05-10T13:28:33;19.55;;;13.02;;
10863;SDS011;5485;37.558;126.950;2023-05-10T13:31:00;23.50;;;10.40;;
10863;SDS011;5485;37.558;126.950;2023-05-10T13:33:27;16.00;;;12.63;;
10863;SDS011;5485;37.558;126.950;2023-05-10T13:35:54;17.58;;;10.55;;
10863;SDS011;5485;37.558;126.950;2023-05-10T13:38:21;17.75;;;12.20;;
10863;SDS011;5485;37.558;126.950;2023-05-10T13:40:51;15.63;;;11.23;;
10863;SDS011;5485;37.558;126.950;2023-05-10T13:43:18;19.25;;;13.40;;
10863;SDS011;5485;37.558;126.950;2023-05-10T13:45:46;21.40;;;11.38;;
10863;SDS011;5485;37.558;126.950;2023-05-10T13:48:12;16.05;;;10.68;;
10863;SDS011;5485;37.558;126.950;2023-05-10T13:50:39;13.65;;;11.02;;
10863;SDS011;5485;37.558;126.950;2023-05-10T13:53:06;15.73;;;10.52;;
10863;SDS011;5485;37.558;126.950;2023-05-10T13:55:33;13.93;;;9.43;;
10863;SDS011;5485;37.558;126.950;2023-05-10T13:58:02;16.58;;;10.65;;
10863;SDS011;5485;37.558;126.950;2023-05-10T14:00:29;15.95;;;11.18;;
10863;SDS011;5485;37.558;126.950;2023-05-10T14:02:57;23.85;;;9.75;;
10863;SDS011;5485;37.558;126.950;2023-05-10T14:05:24;21.48;;;12.50;;
10863;SDS011;5485;37.558;126.950;2023-05-10T14:07:51;15.52;;;10.90;;
10863;SDS011;5485;37.558;126.950;2023-05-10T14:10:18;13.52;;;9.55;;
10863;SDS011;5485;37.558;126.950;2023-05-10T14:12:45;13.55;;;9.65;;
10863;SDS011;5485;37.558;126.950;2023-05-10T14:15:12;13.90;;;8.93;;
10863;SDS011;5485;37.558;126.950;2023-05-10T14:17:39;12.93;;;8.68;;
10863;SDS011;5485;37.558;126.950;2023-05-10T14:20:06;18.30;;;8.88;;
10863;SDS011;5485;37.558;126.950;2023-05-10T14:22:34;12.25;;;9.25;;
10863;SDS011;5485;37.558;126.950;2023-05-10T14:25:01;18.63;;;9.57;;
10863;SDS011;5485;37.558;126.950;2023-05-10T14:27:28;14.07;;;9.00;;
10863;SDS011;5485;37.558;126.950;2023-05-10T14:29:55;19.17;;;11.23;;
10863;SDS011;5485;37.558;126.950;2023-05-10T14:32:22;16.15;;;12.85;;
10863;SDS011;5485;37.558;126.950;2023-05-10T14:34:50;13.93;;;9.43;;
10863;SDS011;5485;37.558;126.950;2023-05-10T14:37:17;16.15;;;9.82;;
10863;SDS011;5485;37.558;126.950;2023-05-10T14:39:43;13.77;;;9.43;;